IDBO2: Little River, Idabel, OK

                                SHEF ID:       IDBO2     Little River blw Lukfata Creek
STATION TYPE: Stream Gauge
Regulating: Stage = 27.50, Flow = 12738

PRECIP STAGE RIV-FLOW BAT-LOAD
in ft cfs volt
Ccp-Rev Ccp-Rev Ccp-Rev Ccp-Rev
(America/Chicago)
05/02 00:00 0.00 9.69 1875 13.67
05/02 01:00 0.00 9.61 1832 13.64
05/02 02:00 0.00 9.52 1784 13.62
05/02 03:00 0.00 9.42 1731 13.58
05/02 04:00 0.00 9.31 1672 13.55
05/02 05:00 0.00 9.21 1620 13.53
05/02 06:00 0.00 9.10 1563 13.51
05/02 07:00 0.00 8.99 1506 13.49
05/02 08:00 0.00 8.89 1455 13.49
05/02 09:00 0.00 8.79 1404 13.59
05/02 10:00 0.00 8.69 1353 13.98
05/02 11:00 0.00 8.59 1303 13.91
05/02 12:00 0.00 8.52 1268 13.88
05/02 13:00 0.00 8.45 1234 13.86
05/02 14:00 0.00 8.38 1199 13.84
05/02 15:00 0.00 8.31 1165 13.82
05/02 16:00 0.00 8.26 1141 13.80
05/02 17:00 0.00 8.20 1112 13.78
05/02 18:00 0.00 8.16 1092 13.76
05/02 19:00 0.00 8.11 1068 13.73
05/02 20:00 0.00 8.07 1049 13.73
05/02 21:00 0.00 8.03 1030 13.70
05/02 22:00 0.00 8.01 1021 13.67
05/02 23:00 0.00 7.98 ---- 13.65
Data processed at Sun 03May2026 04:32 GMT

NOTICE: If you are parsing this page

Please convert to using our Data API. Starting early 2026 we will be migrating to: https://water.usace.army.mil with modern pages rendered in JavaScript. When this migration completes you will no longer be able to scrape this page! CWMSDataAPI (CDA)

Timeseries IDs (TSIDs)

TSIDs used from left to right in the data table
IDAB.Precip-Inc.Total.1Hour.1Hour.Ccp-Rev
IDAB.Stage.Inst.1Hour.0.Ccp-Rev
IDAB.Flow.Inst.1Hour.0.Ccp-Rev
IDAB.Volt-Battery Load.Inst.1Hour.0.Ccp-Rev

                            

All information presented herein is the property of the government of the United States of America and may be revised or deleted at any time without prior notice. Dissemination of this information without the expressed written consent of the Public Affairs Office, Tulsa District U.S. Army Corps of Engineers is strictly prohibited. These data are gathered electronically and, as presented, have NOT undergone any form of quality control. These data are NOT guaranteed to be valid or correct.